Time;durP1;ratioP1;P1;durP2;ratioP2;P2;SDS_P1;SDS_P2;PMS_P1;PMS_P2;Temp;Humidity;BMP_temperature;BMP_pressure;BME280_temperature;BME280_humidity;BME280_pressure;Samples;Min_cycle;Max_cycle;Signal;HPM_P1;HPM_P2
2022/07/08 00:02:24;;;;;;;;;;;15.30;99.90;;;;;;5032927;28;19920;-53
2022/07/08 00:05:09;;;;;;;;;;;15.20;99.90;;;;;;5033074;28;19936;-52
2022/07/08 00:07:53;;;;;;;;;;;15.30;99.90;;;;;;5032149;28;19919;-50
2022/07/08 00:10:37;;;;;;;;;;;15.40;99.90;;;;;;5033257;28;20039;-50
2022/07/08 00:13:21;;;;;;;;;;;15.30;99.90;;;;;;5032792;28;19920;-48
2022/07/08 00:16:06;;;;;;;;;;;15.20;99.90;;;;;;5033614;28;19912;-48
2022/07/08 00:18:50;;;;;;;;;;;15.10;99.90;;;;;;5031825;28;19936;-51
2022/07/08 00:21:34;;;;;;;;;;;15.20;99.90;;;;;;5032085;28;19965;-49
2022/07/08 00:24:19;;;;;;;;;;;15.20;99.90;;;;;;5017515;28;19920;-49
2022/07/08 00:27:03;;;;;;;;;;;15.20;99.90;;;;;;5032583;28;19990;-51
2022/07/08 00:29:47;;;;;;;;;;;15.20;99.90;;;;;;5032890;28;19915;-51
2022/07/08 00:32:32;;;;;;;;;;;15.20;99.90;;;;;;5033406;28;19920;-48
2022/07/08 00:35:16;;;;;;;;;;;15.20;99.90;;;;;;5032793;28;19984;-49
2022/07/08 00:38:01;;;;;;;;;;;15.30;99.90;;;;;;5032391;28;19920;-49
2022/07/08 00:40:45;;;;;;;;;;;15.20;99.90;;;;;;5032459;28;19959;-52
2022/07/08 00:43:37;;;;;;;;;;;15.20;99.90;;;;;;5039240;28;19958;-55
2022/07/08 00:46:21;;;;;;;;;;;15.20;99.90;;;;;;5037229;28;19959;-48
2022/07/08 00:49:05;;;;;;;;;;;15.10;99.90;;;;;;5035618;28;19939;-52
2022/07/08 00:51:51;;;;;;;;;;;15.10;99.90;;;;;;5045609;28;19974;-47
2022/07/08 00:54:35;;;;;;;;;;;15.20;99.90;;;;;;5032216;28;20015;-50
2022/07/08 00:57:20;;;;;;;;;;;15.20;99.90;;;;;;5032322;28;20199;-50
2022/07/08 01:00:04;;;;;;;;;;;15.10;99.90;;;;;;5032479;28;19924;-50
2022/07/08 01:02:51;;;;;;;;;;;15.20;99.90;;;;;;5003615;28;19984;-49
2022/07/08 01:05:35;;;;;;;;;;;15.20;99.90;;;;;;5032137;28;19983;-49
2022/07/08 01:08:19;;;;;;;;;;;15.20;99.90;;;;;;5032319;28;20214;-50
2022/07/08 01:11:04;;;;;;;;;;;15.10;99.90;;;;;;5031973;28;19915;-53
2022/07/08 01:13:48;;;;;;;;;;;15.20;99.90;;;;;;5032075;28;20322;-50
2022/07/08 01:16:32;;;;;;;;;;;15.10;99.90;;;;;;5032291;28;19920;-51
2022/07/08 01:19:16;;;;;;;;;;;15.10;99.90;;;;;;5031952;28;19920;-48
2022/07/08 01:22:01;;;;;;;;;;;15.10;99.90;;;;;;5032130;28;19944;-53
2022/07/08 01:24:46;;;;;;;;;;;15.10;99.90;;;;;;5028439;28;19967;-51
2022/07/08 01:27:30;;;;;;;;;;;15.10;99.90;;;;;;5032326;28;19963;-51
2022/07/08 01:30:14;;;;;;;;;;;15.10;99.90;;;;;;5032182;28;19970;-51
2022/07/08 01:32:58;;;;;;;;;;;15.10;99.90;;;;;;5031929;28;19963;-55
2022/07/08 01:35:42;;;;;;;;;;;15.10;99.90;;;;;;5032503;28;19995;-49
2022/07/08 01:38:26;;;;;;;;;;;15.00;99.90;;;;;;5031513;28;19985;-50
2022/07/08 01:41:11;;;;;;;;;;;14.90;99.90;;;;;;5032740;28;19919;-55
2022/07/08 01:43:56;;;;;;;;;;;15.00;99.90;;;;;;5042380;28;19923;-51
2022/07/08 01:46:41;;;;;;;;;;;15.00;99.90;;;;;;5050845;28;19963;-53
2022/07/08 01:49:25;;;;;;;;;;;15.00;99.90;;;;;;5035996;28;19919;-50
2022/07/08 01:52:09;;;;;;;;;;;15.00;99.90;;;;;;5034552;28;19921;-50
2022/07/08 01:54:53;;;;;;;;;;;15.10;99.90;;;;;;5035769;28;20431;-51
2022/07/08 01:57:38;;;;;;;;;;;15.00;99.90;;;;;;5036300;28;19971;-54
2022/07/08 02:00:22;;;;;;;;;;;14.90;99.90;;;;;;5036888;28;19920;-50
2022/07/08 02:03:06;;;;;;;;;;;14.90;99.90;;;;;;5035957;28;19966;-50
2022/07/08 02:05:50;;;;;;;;;;;14.90;99.90;;;;;;5036228;28;19912;-52
2022/07/08 02:08:34;;;;;;;;;;;14.90;99.90;;;;;;5021089;28;20276;-52
2022/07/08 02:14:22;;;;;;;;;;;14.80;99.90;;;;;;5035088;28;19920;-49
2022/07/08 02:17:06;;;;;;;;;;;14.70;99.90;;;;;;5035454;28;19932;-47
2022/07/08 02:19:51;;;;;;;;;;;14.60;99.90;;;;;;5035154;28;19916;-49
2022/07/08 02:22:35;;;;;;;;;;;14.70;99.90;;;;;;5035104;28;19939;-49
2022/07/08 02:25:19;;;;;;;;;;;14.80;99.90;;;;;;5035659;28;20292;-52
2022/07/08 02:28:03;;;;;;;;;;;14.90;99.90;;;;;;5035330;28;19920;-53
2022/07/08 02:30:47;;;;;;;;;;;14.90;99.90;;;;;;5036374;28;19915;-52
2022/07/08 02:33:32;;;;;;;;;;;14.80;99.90;;;;;;5034784;28;19916;-51
2022/07/08 02:36:16;;;;;;;;;;;14.80;99.90;;;;;;5034602;28;19916;-50
2022/07/08 02:39:01;;;;;;;;;;;14.70;99.90;;;;;;5014892;28;19972;-48
2022/07/08 02:41:45;;;;;;;;;;;14.80;99.90;;;;;;5017042;28;19917;-51
2022/07/08 02:44:29;;;;;;;;;;;14.80;99.90;;;;;;5035783;28;20357;-51
2022/07/08 02:47:13;;;;;;;;;;;14.80;99.90;;;;;;5038497;28;19920;-54
2022/07/08 02:49:57;;;;;;;;;;;14.80;99.90;;;;;;5039388;28;19916;-54
2022/07/08 02:52:41;;;;;;;;;;;14.80;99.90;;;;;;5039078;28;19963;-53
2022/07/08 02:55:26;;;;;;;;;;;14.80;99.90;;;;;;5036259;28;19963;-52
2022/07/08 02:58:11;;;;;;;;;;;14.80;99.90;;;;;;5035696;28;19975;-50
2022/07/08 03:00:55;;;;;;;;;;;14.80;99.90;;;;;;5034210;28;19959;-49
2022/07/08 03:03:39;;;;;;;;;;;14.90;99.90;;;;;;5034969;28;19916;-50
2022/07/08 03:06:23;;;;;;;;;;;14.90;99.90;;;;;;5035686;28;19995;-49
2022/07/08 03:09:08;;;;;;;;;;;14.70;99.90;;;;;;5035619;28;19967;-48
2022/07/08 03:11:52;;;;;;;;;;;14.70;99.90;;;;;;5035471;28;19916;-49
2022/07/08 03:14:36;;;;;;;;;;;14.60;99.90;;;;;;5015200;28;20002;-53
2022/07/08 03:17:20;;;;;;;;;;;14.60;99.90;;;;;;5015003;28;19916;-53
2022/07/08 03:20:04;;;;;;;;;;;14.70;99.90;;;;;;5033397;28;19935;-49
2022/07/08 03:22:49;;;;;;;;;;;14.60;99.90;;;;;;5033417;28;20453;-53
2022/07/08 03:25:33;;;;;;;;;;;14.40;99.90;;;;;;5033393;28;19916;-50
2022/07/08 03:28:17;;;;;;;;;;;14.40;99.90;;;;;;5033261;28;19923;-52
2022/07/08 03:31:01;;;;;;;;;;;14.30;99.90;;;;;;5033069;28;19931;-55
2022/07/08 03:33:46;;;;;;;;;;;14.10;99.90;;;;;;5033251;28;20304;-48
2022/07/08 03:36:30;;;;;;;;;;;14.20;99.90;;;;;;5032773;28;20376;-48
2022/07/08 03:39:14;;;;;;;;;;;14.30;99.90;;;;;;5033412;28;19966;-51
2022/07/08 03:41:58;;;;;;;;;;;14.30;99.90;;;;;;5032673;28;19959;-50
2022/07/08 03:44:43;;;;;;;;;;;14.20;99.90;;;;;;5032785;28;20420;-51
2022/07/08 03:47:27;;;;;;;;;;;14.10;99.90;;;;;;5032185;28;19943;-54
2022/07/08 03:50:11;;;;;;;;;;;14.20;99.90;;;;;;5031749;28;20327;-49
2022/07/08 03:52:56;;;;;;;;;;;14.20;99.90;;;;;;5032777;28;20384;-48
2022/07/08 03:55:40;;;;;;;;;;;14.20;99.90;;;;;;5046860;28;20004;-53
2022/07/08 03:58:24;;;;;;;;;;;14.10;99.90;;;;;;5032580;28;19911;-51
2022/07/08 04:01:08;;;;;;;;;;;14.20;99.90;;;;;;5032867;28;19979;-49
2022/07/08 04:03:52;;;;;;;;;;;14.20;99.90;;;;;;5034105;28;19966;-50
2022/07/08 04:06:36;;;;;;;;;;;14.20;99.90;;;;;;5032557;28;20426;-48
2022/07/08 04:09:21;;;;;;;;;;;14.20;99.90;;;;;;5017663;28;19956;-54
2022/07/08 04:12:05;;;;;;;;;;;14.40;99.90;;;;;;5032399;28;19923;-49
2022/07/08 04:14:49;;;;;;;;;;;14.30;99.90;;;;;;5016895;28;19920;-52
2022/07/08 04:17:34;;;;;;;;;;;14.20;99.90;;;;;;5031032;28;19971;-52
2022/07/08 04:20:18;;;;;;;;;;;14.30;99.90;;;;;;5032057;28;20280;-51
2022/07/08 04:23:03;;;;;;;;;;;14.30;99.90;;;;;;5012222;28;19919;-48
2022/07/08 04:25:47;;;;;;;;;;;14.40;99.90;;;;;;5014012;28;19928;-54
2022/07/08 04:28:31;;;;;;;;;;;14.40;99.90;;;;;;5032290;28;19931;-50
2022/07/08 04:31:16;;;;;;;;;;;14.30;99.90;;;;;;5031702;28;20340;-53
2022/07/08 04:33:59;;;;;;;;;;;14.40;99.90;;;;;;5032447;28;19917;-52
2022/07/08 04:36:44;;;;;;;;;;;14.50;99.90;;;;;;5032457;28;19920;-51
2022/07/08 04:39:28;;;;;;;;;;;14.40;99.90;;;;;;5031707;28;20340;-50
2022/07/08 04:42:12;;;;;;;;;;;14.50;99.90;;;;;;5031717;28;19971;-55
2022/07/08 04:44:56;;;;;;;;;;;14.40;99.90;;;;;;5036589;28;20023;-53
2022/07/08 04:47:41;;;;;;;;;;;14.40;99.90;;;;;;5031124;28;20277;-55
2022/07/08 04:50:25;;;;;;;;;;;14.50;99.90;;;;;;5031880;28;19920;-53
2022/07/08 04:53:09;;;;;;;;;;;14.50;99.90;;;;;;5031225;28;19935;-57
2022/07/08 04:55:53;;;;;;;;;;;14.50;99.90;;;;;;5032175;28;19968;-52
2022/07/08 04:58:38;;;;;;;;;;;14.60;99.90;;;;;;5012611;28;20376;-53
2022/07/08 05:01:22;;;;;;;;;;;14.60;99.90;;;;;;5022666;28;19982;-54
2022/07/08 05:04:06;;;;;;;;;;;14.50;99.90;;;;;;5031199;28;20018;-54
2022/07/08 05:06:50;;;;;;;;;;;14.50;99.90;;;;;;5031438;28;20002;-51
2022/07/08 05:09:34;;;;;;;;;;;14.70;99.90;;;;;;5032251;28;19916;-54
2022/07/08 05:12:18;;;;;;;;;;;14.70;99.90;;;;;;5031988;28;20288;-51
2022/07/08 05:15:03;;;;;;;;;;;14.70;99.90;;;;;;5016694;28;19915;-55
2022/07/08 05:17:47;;;;;;;;;;;14.70;99.90;;;;;;5011419;28;19932;-52
2022/07/08 05:20:32;;;;;;;;;;;14.90;99.90;;;;;;5013417;28;19916;-53
2022/07/08 05:23:16;;;;;;;;;;;15.00;99.90;;;;;;5034998;28;19914;-53
2022/07/08 05:26:01;;;;;;;;;;;14.90;99.90;;;;;;5020542;28;19931;-52
2022/07/08 05:28:45;;;;;;;;;;;14.80;99.90;;;;;;5034866;28;19924;-51
2022/07/08 05:31:29;;;;;;;;;;;14.90;99.90;;;;;;5034928;28;19920;-52
2022/07/08 05:34:13;;;;;;;;;;;15.00;99.90;;;;;;5035261;28;19916;-51
2022/07/08 05:36:58;;;;;;;;;;;15.00;99.90;;;;;;5034801;28;20280;-53
2022/07/08 05:39:42;;;;;;;;;;;15.10;99.90;;;;;;5035007;28;19935;-53
2022/07/08 05:42:27;;;;;;;;;;;15.10;99.90;;;;;;5034713;28;20395;-52
2022/07/08 05:45:13;;;;;;;;;;;15.10;99.90;;;;;;5015259;28;19985;-52
2022/07/08 05:47:57;;;;;;;;;;;15.10;99.90;;;;;;5033303;28;20291;-55
2022/07/08 05:50:41;;;;;;;;;;;15.20;99.90;;;;;;5035510;28;20391;-51
2022/07/08 05:53:25;;;;;;;;;;;15.20;99.90;;;;;;5020549;28;20379;-54
2022/07/08 05:56:10;;;;;;;;;;;15.10;99.90;;;;;;5035209;28;19916;-56
2022/07/08 05:58:54;;;;;;;;;;;15.10;99.90;;;;;;5035238;28;19915;-52
2022/07/08 06:01:38;;;;;;;;;;;15.10;99.90;;;;;;5035343;28;19932;-55
2022/07/08 06:04:22;;;;;;;;;;;15.20;99.90;;;;;;5021066;28;19920;-56
2022/07/08 06:07:07;;;;;;;;;;;15.30;99.90;;;;;;5035198;28;20391;-53
2022/07/08 06:09:50;;;;;;;;;;;15.20;99.90;;;;;;5035018;28;19966;-53
2022/07/08 06:12:35;;;;;;;;;;;15.10;99.90;;;;;;5035380;28;19916;-55
2022/07/08 06:15:19;;;;;;;;;;;15.30;99.90;;;;;;5034696;28;19919;-53
2022/07/08 06:18:04;;;;;;;;;;;15.30;99.90;;;;;;5014877;28;19936;-52
2022/07/08 06:20:48;;;;;;;;;;;15.10;99.90;;;;;;5002427;28;19962;-52
2022/07/08 06:23:34;;;;;;;;;;;15.10;99.90;;;;;;5034768;28;19920;-54
2022/07/08 06:26:20;;;;;;;;;;;15.20;99.90;;;;;;5034442;28;19987;-53
2022/07/08 06:29:05;;;;;;;;;;;15.20;99.90;;;;;;5034373;28;19912;-51
2022/07/08 06:31:49;;;;;;;;;;;15.30;99.90;;;;;;5033829;28;20046;-56
2022/07/08 06:34:33;;;;;;;;;;;15.40;99.90;;;;;;5032571;28;19924;-51
2022/07/08 06:37:18;;;;;;;;;;;15.40;99.90;;;;;;5034772;28;19916;-55
2022/07/08 06:40:02;;;;;;;;;;;15.30;99.90;;;;;;5033649;28;19920;-55
2022/07/08 06:42:47;;;;;;;;;;;15.30;99.90;;;;;;5015890;28;20000;-56
2022/07/08 06:45:32;;;;;;;;;;;15.30;99.90;;;;;;5033721;28;19920;-50
2022/07/08 06:48:16;;;;;;;;;;;15.40;99.90;;;;;;5034219;28;20403;-53
2022/07/08 06:51:00;;;;;;;;;;;15.40;99.90;;;;;;5036354;28;20206;-53
2022/07/08 06:56:48;;;;;;;;;;;15.40;99.90;;;;;;5033739;28;19924;-52
2022/07/08 06:59:32;;;;;;;;;;;15.50;99.90;;;;;;5033835;28;19920;-58
2022/07/08 07:02:16;;;;;;;;;;;15.60;99.90;;;;;;5018377;28;19920;-54
2022/07/08 07:05:00;;;;;;;;;;;15.60;99.90;;;;;;5033709;28;19912;-55
2022/07/08 07:07:44;;;;;;;;;;;15.60;99.90;;;;;;5013381;28;19916;-55
2022/07/08 07:10:28;;;;;;;;;;;15.60;99.90;;;;;;5015515;28;20426;-51
2022/07/08 07:13:13;;;;;;;;;;;15.60;99.90;;;;;;5031949;28;19916;-50
2022/07/08 07:15:57;;;;;;;;;;;15.50;99.90;;;;;;5017778;28;20328;-56
2022/07/08 07:18:41;;;;;;;;;;;15.30;99.90;;;;;;5018814;28;19963;-49
2022/07/08 07:21:25;;;;;;;;;;;15.40;99.90;;;;;;5033882;28;19928;-52
2022/07/08 07:24:10;;;;;;;;;;;15.40;99.90;;;;;;5033529;28;20364;-54
2022/07/08 07:26:54;;;;;;;;;;;15.40;99.90;;;;;;5033041;28;19916;-54
2022/07/08 07:29:38;;;;;;;;;;;15.40;99.90;;;;;;5032840;28;19936;-52
2022/07/08 07:32:22;;;;;;;;;;;15.40;99.90;;;;;;5017598;28;20364;-51
2022/07/08 07:35:07;;;;;;;;;;;15.50;99.90;;;;;;5032924;28;19915;-51
2022/07/08 07:37:51;;;;;;;;;;;15.50;99.90;;;;;;5032862;28;19916;-50
2022/07/08 07:40:35;;;;;;;;;;;15.50;99.90;;;;;;5016883;28;19979;-52
2022/07/08 07:43:19;;;;;;;;;;;15.60;99.90;;;;;;5032071;28;19919;-54
2022/07/08 07:46:04;;;;;;;;;;;15.70;99.90;;;;;;5032374;28;20002;-57
2022/07/08 07:48:48;;;;;;;;;;;15.80;99.90;;;;;;5030423;28;20371;-49
2022/07/08 07:51:32;;;;;;;;;;;15.70;99.90;;;;;;5030006;28;20451;-53
2022/07/08 07:54:17;;;;;;;;;;;15.70;99.90;;;;;;5031811;28;19916;-54
2022/07/08 07:57:01;;;;;;;;;;;15.70;99.90;;;;;;5029730;28;19916;-55
2022/07/08 07:59:45;;;;;;;;;;;15.70;99.90;;;;;;5019969;28;19924;-56
2022/07/08 08:02:29;;;;;;;;;;;15.80;99.90;;;;;;5015111;28;19912;-55
2022/07/08 08:05:14;;;;;;;;;;;16.10;99.40;;;;;;5017584;28;19916;-58
2022/07/08 08:07:59;;;;;;;;;;;15.90;99.00;;;;;;5016949;28;20004;-52
2022/07/08 08:10:43;;;;;;;;;;;15.90;98.80;;;;;;5017973;28;19913;-55
2022/07/08 08:13:27;;;;;;;;;;;16.10;99.00;;;;;;5003143;28;19920;-49
2022/07/08 08:16:11;;;;;;;;;;;16.20;98.80;;;;;;5032449;28;19951;-54
2022/07/08 08:18:56;;;;;;;;;;;16.40;98.30;;;;;;5017151;28;19966;-57
2022/07/08 08:21:40;;;;;;;;;;;16.50;98.00;;;;;;5032758;28;20024;-55
2022/07/08 08:24:24;;;;;;;;;;;16.40;97.30;;;;;;5012554;28;19919;-54
2022/07/08 08:27:09;;;;;;;;;;;16.50;97.50;;;;;;5014951;28;20013;-55
2022/07/08 08:29:53;;;;;;;;;;;16.40;97.40;;;;;;5032364;28;20032;-54
2022/07/08 08:32:37;;;;;;;;;;;16.40;97.40;;;;;;5017407;28;19955;-53
2022/07/08 08:35:21;;;;;;;;;;;16.40;97.70;;;;;;5032600;28;20008;-52
2022/07/08 08:38:05;;;;;;;;;;;16.40;97.50;;;;;;5031449;28;19968;-51
2022/07/08 08:40:53;;;;;;;;;;;16.50;97.40;;;;;;5031519;28;19932;-56
2022/07/08 08:43:38;;;;;;;;;;;16.60;97.20;;;;;;5039249;28;19931;-51
2022/07/08 08:46:23;;;;;;;;;;;16.70;96.80;;;;;;5035776;28;19920;-53
2022/07/08 08:49:08;;;;;;;;;;;16.60;96.50;;;;;;5031290;28;19924;-53
2022/07/08 08:51:53;;;;;;;;;;;16.70;96.60;;;;;;5031420;28;20257;-53
2022/07/08 08:54:37;;;;;;;;;;;16.60;96.50;;;;;;5030289;28;20426;-53
2022/07/08 08:57:21;;;;;;;;;;;16.50;96.70;;;;;;5030904;28;19929;-54
2022/07/08 09:00:06;;;;;;;;;;;16.70;96.90;;;;;;5033301;28;20055;-55
2022/07/08 09:02:51;;;;;;;;;;;17.00;96.50;;;;;;5006914;28;19916;-54
2022/07/08 09:05:36;;;;;;;;;;;17.00;96.10;;;;;;5032793;28;19971;-52
2022/07/08 09:08:20;;;;;;;;;;;17.10;96.10;;;;;;5032315;28;19965;-54
2022/07/08 09:11:04;;;;;;;;;;;17.30;95.80;;;;;;5031903;28;19967;-55
2022/07/08 09:14:07;;;;;;;;;;;17.30;95.80;;;;;;5031951;28;19911;-51
2022/07/08 09:17:17;;;;;;;;;;;17.40;95.60;;;;;;5032517;28;19978;-57
2022/07/08 09:20:01;;;;;;;;;;;17.60;95.00;;;;;;5031533;28;20371;-53
2022/07/08 09:22:45;;;;;;;;;;;17.70;95.20;;;;;;5017445;28;19912;-51
2022/07/08 09:25:30;;;;;;;;;;;17.50;95.00;;;;;;5031879;28;19963;-51
2022/07/08 09:28:15;;;;;;;;;;;17.50;95.00;;;;;;5031837;28;20364;-55
2022/07/08 09:31:00;;;;;;;;;;;17.50;94.70;;;;;;5031675;28;19963;-52
2022/07/08 09:33:44;;;;;;;;;;;17.50;95.00;;;;;;5031932;28;19911;-55
2022/07/08 09:36:42;;;;;;;;;;;17.50;94.80;;;;;;5031639;28;20299;-50
2022/07/08 09:39:27;;;;;;;;;;;17.50;94.90;;;;;;5031811;28;19924;-55
2022/07/08 09:42:14;;;;;;;;;;;17.50;94.90;;;;;;5032767;28;19916;-55
2022/07/08 09:44:58;;;;;;;;;;;17.40;94.90;;;;;;5031761;28;19911;-55
2022/07/08 09:47:42;;;;;;;;;;;17.40;95.20;;;;;;5031388;28;19975;-53
2022/07/08 09:50:43;;;;;;;;;;;17.40;95.00;;;;;;5031065;28;19924;-55
2022/07/08 09:53:28;;;;;;;;;;;17.20;95.10;;;;;;5031346;28;19966;-51
2022/07/08 09:56:12;;;;;;;;;;;17.30;95.40;;;;;;5046869;28;19911;-53
2022/07/08 09:58:56;;;;;;;;;;;17.50;95.20;;;;;;5051391;28;20280;-48
2022/07/08 10:01:40;;;;;;;;;;;17.50;94.70;;;;;;5032855;28;20081;-54
2022/07/08 10:04:25;;;;;;;;;;;17.50;94.40;;;;;;5016266;28;19968;-49
2022/07/08 10:07:09;;;;;;;;;;;17.40;94.70;;;;;;5031118;28;20383;-53
2022/07/08 10:09:53;;;;;;;;;;;17.60;94.70;;;;;;5032255;28;19916;-54
2022/07/08 10:12:38;;;;;;;;;;;17.50;94.50;;;;;;5034117;28;19964;-55
2022/07/08 10:15:22;;;;;;;;;;;17.50;94.40;;;;;;5032978;28;19959;-53
2022/07/08 10:18:09;;;;;;;;;;;17.60;94.20;;;;;;5032044;28;20430;-53
2022/07/08 10:20:54;;;;;;;;;;;17.60;93.90;;;;;;5019534;28;19920;-54
2022/07/08 10:23:49;;;;;;;;;;;17.70;94.20;;;;;;5031332;28;19974;-54
2022/07/08 10:26:38;;;;;;;;;;;17.80;93.70;;;;;;5031909;28;19928;-53
2022/07/08 10:29:28;;;;;;;;;;;17.80;94.10;;;;;;5030243;28;20013;-51
2022/07/08 10:32:41;;;;;;;;;;;18.10;93.80;;;;;;5017881;28;20324;-54
2022/07/08 10:35:25;;;;;;;;;;;18.40;92.80;;;;;;5022281;28;19920;-53
2022/07/08 10:38:09;;;;;;;;;;;18.40;92.60;;;;;;5029828;28;19924;-50
2022/07/08 10:40:53;;;;;;;;;;;18.60;92.50;;;;;;5014935;28;19968;-53
2022/07/08 10:43:48;;;;;;;;;;;18.90;91.60;;;;;;5020694;28;20395;-56
2022/07/08 10:46:32;;;;;;;;;;;18.80;91.50;;;;;;5030869;28;19972;-56
2022/07/08 10:49:17;;;;;;;;;;;18.60;91.50;;;;;;5028824;28;19936;-55
2022/07/08 10:52:01;;;;;;;;;;;18.30;91.70;;;;;;5032637;28;19956;-53
2022/07/08 10:54:45;;;;;;;;;;;18.40;91.50;;;;;;5035056;28;19919;-52
2022/07/08 10:57:30;;;;;;;;;;;18.50;91.80;;;;;;5038236;28;20206;-51
2022/07/08 11:00:14;;;;;;;;;;;18.40;91.20;;;;;;5036273;28;19915;-49
2022/07/08 11:02:59;;;;;;;;;;;18.70;91.40;;;;;;5033967;28;19912;-54
2022/07/08 11:05:45;;;;;;;;;;;18.90;90.70;;;;;;5033598;28;19979;-51
2022/07/08 11:08:30;;;;;;;;;;;19.20;90.80;;;;;;5030019;28;19959;-54
2022/07/08 11:11:14;;;;;;;;;;;19.30;89.20;;;;;;5037301;28;19984;-55
2022/07/08 11:13:58;;;;;;;;;;;19.00;89.80;;;;;;5038933;28;20002;-53
2022/07/08 11:16:43;;;;;;;;;;;19.10;90.80;;;;;;5012890;28;20487;-52
2022/07/08 11:19:33;;;;;;;;;;;19.30;90.30;;;;;;5028255;28;19963;-54
2022/07/08 11:22:18;;;;;;;;;;;19.40;90.30;;;;;;5024542;28;19916;-51
2022/07/08 11:25:02;;;;;;;;;;;19.50;90.40;;;;;;5031106;28;19916;-54
2022/07/08 11:27:46;;;;;;;;;;;19.60;88.40;;;;;;5032689;28;19966;-57
2022/07/08 11:30:33;;;;;;;;;;;19.90;87.80;;;;;;5031636;28;20445;-53
2022/07/08 11:33:17;;;;;;;;;;;19.70;86.50;;;;;;5031642;28;19920;-56
2022/07/08 11:36:10;;;;;;;;;;;19.80;85.70;;;;;;5032725;28;19955;-51
2022/07/08 11:38:55;;;;;;;;;;;19.60;86.30;;;;;;5030663;28;19920;-57
2022/07/08 11:41:40;;;;;;;;;;;19.60;86.20;;;;;;5033257;28;20364;-50
2022/07/08 11:44:26;;;;;;;;;;;20.00;84.90;;;;;;5026752;28;19970;-55
2022/07/08 11:47:14;;;;;;;;;;;20.40;85.20;;;;;;5045322;28;19951;-55
2022/07/08 11:50:01;;;;;;;;;;;20.40;85.10;;;;;;5010810;28;20299;-60
2022/07/08 11:52:46;;;;;;;;;;;20.20;85.40;;;;;;5022305;28;19915;-57
2022/07/08 11:55:30;;;;;;;;;;;20.10;86.30;;;;;;5039045;28;20403;-55
2022/07/08 11:58:21;;;;;;;;;;;20.10;84.80;;;;;;5024972;28;19916;-48
2022/07/08 12:01:07;;;;;;;;;;;20.20;83.60;;;;;;5023691;28;19932;-51
2022/07/08 12:03:51;;;;;;;;;;;20.20;84.70;;;;;;5033860;28;19972;-56
2022/07/08 12:06:44;;;;;;;;;;;20.10;85.40;;;;;;5032200;28;19924;-46
2022/07/08 12:09:29;;;;;;;;;;;20.30;85.10;;;;;;5023108;28;19919;-46
2022/07/08 12:12:14;;;;;;;;;;;20.10;85.40;;;;;;5032514;28;19955;-46
2022/07/08 12:15:11;;;;;;;;;;;20.00;85.70;;;;;;5032631;28;19936;-47
2022/07/08 12:17:57;;;;;;;;;;;20.10;84.50;;;;;;5030579;28;20379;-51
2022/07/08 12:20:41;;;;;;;;;;;20.30;85.30;;;;;;5031130;28;19975;-47
2022/07/08 12:23:25;;;;;;;;;;;20.60;85.00;;;;;;5032675;28;20092;-51
2022/07/08 12:26:10;;;;;;;;;;;20.60;84.60;;;;;;5032109;28;19963;-53
2022/07/08 12:28:55;;;;;;;;;;;20.50;82.90;;;;;;5031661;28;19916;-48
2022/07/08 12:31:42;;;;;;;;;;;20.50;82.80;;;;;;5031859;28;19920;-47
2022/07/08 12:34:26;;;;;;;;;;;20.50;82.10;;;;;;5032498;28;19948;-48
2022/07/08 12:37:20;;;;;;;;;;;20.40;82.90;;;;;;5032501;28;20017;-48
2022/07/08 12:40:11;;;;;;;;;;;20.50;83.10;;;;;;5032400;28;19919;-49
2022/07/08 12:43:00;;;;;;;;;;;20.50;83.10;;;;;;5019583;28;20286;-52
2022/07/08 12:45:44;;;;;;;;;;;20.50;83.40;;;;;;5052542;28;20344;-49
2022/07/08 12:48:29;;;;;;;;;;;20.50;84.30;;;;;;5051883;28;19912;-48
2022/07/08 12:51:13;;;;;;;;;;;20.70;84.70;;;;;;5052304;28;20288;-51
2022/07/08 12:53:57;;;;;;;;;;;20.60;84.20;;;;;;5052305;28;19916;-47
2022/07/08 12:56:41;;;;;;;;;;;20.70;84.20;;;;;;5052700;28;19962;-47
2022/07/08 12:59:26;;;;;;;;;;;20.60;84.40;;;;;;5052090;28;19924;-51
2022/07/08 13:02:10;;;;;;;;;;;20.80;84.10;;;;;;5052339;28;19911;-45
2022/07/08 13:04:54;;;;;;;;;;;20.90;83.90;;;;;;5052793;28;20221;-45
2022/07/08 13:07:39;;;;;;;;;;;21.00;84.00;;;;;;5052259;28;20002;-45
2022/07/08 13:10:23;;;;;;;;;;;21.40;81.30;;;;;;5052333;28;19936;-48
2022/07/08 13:13:07;;;;;;;;;;;21.50;81.70;;;;;;5053161;28;19916;-51
2022/07/08 13:15:51;;;;;;;;;;;21.60;82.40;;;;;;5052826;28;19936;-51
2022/07/08 13:18:35;;;;;;;;;;;21.30;82.20;;;;;;5027923;28;20407;-53
2022/07/08 13:21:19;;;;;;;;;;;21.30;83.00;;;;;;5031819;28;19983;-52
2022/07/08 13:24:04;;;;;;;;;;;21.60;82.40;;;;;;5032718;28;19963;-55
2022/07/08 13:26:48;;;;;;;;;;;21.70;82.60;;;;;;5032634;28;19916;-50
2022/07/08 13:29:32;;;;;;;;;;;21.70;82.50;;;;;;5032642;28;19916;-54
2022/07/08 13:32:16;;;;;;;;;;;22.00;82.50;;;;;;5032677;28;19985;-51
2022/07/08 13:35:00;;;;;;;;;;;21.80;82.00;;;;;;5033141;28;19959;-52
2022/07/08 13:37:45;;;;;;;;;;;21.80;82.40;;;;;;5032573;28;20384;-53
2022/07/08 13:40:30;;;;;;;;;;;21.90;82.30;;;;;;5034007;28;19936;-52
2022/07/08 13:43:14;;;;;;;;;;;21.60;82.10;;;;;;5039247;28;19963;-54
2022/07/08 13:45:58;;;;;;;;;;;21.20;84.00;;;;;;5043109;28;19916;-55
2022/07/08 13:48:43;;;;;;;;;;;21.10;84.50;;;;;;5038069;28;19932;-49
2022/07/08 13:51:27;;;;;;;;;;;21.30;84.60;;;;;;5049810;28;20279;-51
2022/07/08 13:54:12;;;;;;;;;;;21.40;84.40;;;;;;5055167;28;19920;-46
2022/07/08 13:56:56;;;;;;;;;;;21.40;84.30;;;;;;5055102;28;19923;-47
2022/07/08 13:59:41;;;;;;;;;;;21.70;84.20;;;;;;5055166;28;19969;-55
2022/07/08 14:02:25;;;;;;;;;;;21.80;84.10;;;;;;5040748;28;19915;-54
2022/07/08 14:05:09;;;;;;;;;;;21.90;84.50;;;;;;5055781;28;19915;-53
2022/07/08 14:07:54;;;;;;;;;;;21.70;84.70;;;;;;5055056;28;20284;-50
2022/07/08 14:10:38;;;;;;;;;;;21.70;85.90;;;;;;5054665;28;20279;-49
2022/07/08 14:13:22;;;;;;;;;;;21.80;85.10;;;;;;5054960;28;19954;-48
2022/07/08 14:16:07;;;;;;;;;;;21.60;85.60;;;;;;5052946;28;20000;-48
2022/07/08 14:18:51;;;;;;;;;;;21.60;85.10;;;;;;5034297;28;19916;-49
2022/07/08 14:21:35;;;;;;;;;;;21.50;85.60;;;;;;5034849;28;20254;-53
2022/07/08 14:24:19;;;;;;;;;;;21.50;85.60;;;;;;5035136;28;20323;-52
2022/07/08 14:27:04;;;;;;;;;;;21.30;86.40;;;;;;5034560;28;20415;-52
2022/07/08 14:29:48;;;;;;;;;;;21.10;87.20;;;;;;5035224;28;19912;-55
2022/07/08 14:32:32;;;;;;;;;;;21.00;88.00;;;;;;5034867;28;19963;-50
2022/07/08 14:35:17;;;;;;;;;;;21.10;87.50;;;;;;5034588;28;19967;-53
2022/07/08 14:38:01;;;;;;;;;;;21.20;86.50;;;;;;5035522;28;19955;-48
2022/07/08 14:40:46;;;;;;;;;;;21.20;87.40;;;;;;5037743;28;20435;-53
2022/07/08 14:43:31;;;;;;;;;;;21.40;87.70;;;;;;5046556;28;20016;-52
2022/07/08 14:46:15;;;;;;;;;;;21.40;87.60;;;;;;5045099;28;19979;-50
2022/07/08 14:49:00;;;;;;;;;;;21.30;87.70;;;;;;5035719;28;19986;-50
2022/07/08 14:51:44;;;;;;;;;;;21.20;88.10;;;;;;5034827;28;19916;-50
2022/07/08 14:54:29;;;;;;;;;;;21.20;88.50;;;;;;5033136;28;20376;-50
2022/07/08 14:57:13;;;;;;;;;;;21.20;88.80;;;;;;5018818;28;19932;-50
2022/07/08 14:59:57;;;;;;;;;;;21.10;89.00;;;;;;5033978;28;19920;-49
2022/07/08 15:02:41;;;;;;;;;;;21.20;89.10;;;;;;5018816;28;20423;-53
2022/07/08 15:05:26;;;;;;;;;;;21.00;89.20;;;;;;5033987;28;19912;-48
2022/07/08 15:08:10;;;;;;;;;;;20.80;89.70;;;;;;5033757;28;19918;-53
2022/07/08 15:10:54;;;;;;;;;;;20.80;90.10;;;;;;5019283;28;20352;-53
2022/07/08 15:13:39;;;;;;;;;;;20.60;90.40;;;;;;5034001;28;20433;-54
2022/07/08 15:16:23;;;;;;;;;;;20.60;90.70;;;;;;5034647;28;19911;-52
2022/07/08 15:19:08;;;;;;;;;;;20.50;90.80;;;;;;5033126;28;20201;-52
2022/07/08 15:21:52;;;;;;;;;;;20.60;90.80;;;;;;5033678;28;19924;-47
2022/07/08 15:24:37;;;;;;;;;;;20.60;90.70;;;;;;5033644;28;19955;-47
2022/07/08 15:27:21;;;;;;;;;;;20.60;90.90;;;;;;5033421;28;20344;-47
2022/07/08 15:30:06;;;;;;;;;;;20.60;91.00;;;;;;5033505;28;19915;-52
2022/07/08 15:32:50;;;;;;;;;;;20.50;91.20;;;;;;5033050;28;19915;-49
2022/07/08 15:35:35;;;;;;;;;;;20.40;91.50;;;;;;5033240;28;19916;-48
2022/07/08 15:38:19;;;;;;;;;;;20.50;91.60;;;;;;5032680;28;20426;-47
2022/07/08 15:41:06;;;;;;;;;;;20.50;91.60;;;;;;5032509;28;19966;-52
2022/07/08 15:44:11;;;;;;;;;;;20.50;91.80;;;;;;5033276;28;20339;-50
2022/07/08 15:46:55;;;;;;;;;;;20.50;92.00;;;;;;5029703;28;19912;-47
2022/07/08 15:49:40;;;;;;;;;;;20.70;91.80;;;;;;5032704;28;19916;-52
2022/07/08 15:52:24;;;;;;;;;;;20.70;91.90;;;;;;5033132;28;20376;-49
2022/07/08 15:55:08;;;;;;;;;;;20.60;92.10;;;;;;5032980;28;19928;-50
2022/07/08 15:57:52;;;;;;;;;;;20.80;92.00;;;;;;5032647;28;19916;-52
2022/07/08 16:00:39;;;;;;;;;;;20.90;91.80;;;;;;5033043;28;19975;-52
2022/07/08 16:03:24;;;;;;;;;;;20.60;92.20;;;;;;5032288;28;20323;-50
2022/07/08 16:06:08;;;;;;;;;;;20.40;92.40;;;;;;5032375;28;19917;-49